createdAt,value
2022-08-14T00:02:31.080Z,78.20
2022-08-14T00:04:59.680Z,78.30
2022-08-14T00:07:28.358Z,78.40
2022-08-14T00:10:49.217Z,78.50
2022-08-14T00:12:56.743Z,78.40
2022-08-14T00:15:43.387Z,78.50
2022-08-14T00:18:30.766Z,78.50
2022-08-14T00:21:03.208Z,78.60
2022-08-14T00:23:34.459Z,78.50
2022-08-14T00:26:06.822Z,78.60
2022-08-14T00:28:37.225Z,78.70
2022-08-14T00:31:08.192Z,78.90
2022-08-14T00:33:50.533Z,78.80
2022-08-14T00:36:46.964Z,78.90
2022-08-14T00:39:17.951Z,78.80
2022-08-14T00:41:47.593Z,79.10
2022-08-14T00:44:26.562Z,79.20
2022-08-14T00:47:01.453Z,79.30
2022-08-14T00:49:43.170Z,79.40
2022-08-14T00:52:18.138Z,79.60
2022-08-14T00:54:57.982Z,80.10
2022-08-14T00:57:30.312Z,80.10
2022-08-14T01:00:00.807Z,80.30
2022-08-14T01:02:31.927Z,80.40
2022-08-14T01:05:07.974Z,80.60
2022-08-14T01:07:47.286Z,80.80
2022-08-14T01:10:19.285Z,81.00
2022-08-14T01:12:49.090Z,81.20
2022-08-14T01:15:19.008Z,81.20
2022-08-14T01:18:08.741Z,81.20
2022-08-14T01:20:55.355Z,81.50
2022-08-14T01:23:25.477Z,81.50
2022-08-14T01:26:11.673Z,81.70
2022-08-14T01:28:54.399Z,82.00
2022-08-14T01:31:30.955Z,82.60
2022-08-14T01:35:17.903Z,82.10
2022-08-14T01:36:55.728Z,82.30
2022-08-14T01:39:24.372Z,83.10
2022-08-14T01:42:01.070Z,82.50
2022-08-14T01:44:34.538Z,82.60
2022-08-14T01:47:22.185Z,82.70
2022-08-14T01:49:59.612Z,83.00
2022-08-14T01:52:59.055Z,82.90
2022-08-14T01:55:33.653Z,83.10
2022-08-14T01:58:19.815Z,83.20
2022-08-14T02:00:57.348Z,83.20
2022-08-14T02:03:30.815Z,83.30
2022-08-14T02:06:03.999Z,83.40
2022-08-14T02:08:52.622Z,83.40
2022-08-14T02:11:25.338Z,83.50
2022-08-14T02:14:07.078Z,83.60
2022-08-14T02:16:42.672Z,83.70
2022-08-14T02:19:15.280Z,83.80
2022-08-14T02:21:49.101Z,83.90
2022-08-14T02:24:39.112Z,84.00
2022-08-14T02:28:25.655Z,84.10
2022-08-14T02:30:02.844Z,84.60
2022-08-14T02:32:37.310Z,84.30
2022-08-14T02:35:11.716Z,84.40
2022-08-14T02:37:48.279Z,84.50
2022-08-14T02:40:32.190Z,84.60
2022-08-14T02:43:03.862Z,84.80
2022-08-14T02:45:38.522Z,84.80
2022-08-14T02:49:04.363Z,85.10
2022-08-14T02:51:09.117Z,85.30
2022-08-14T02:53:42.205Z,85.40
2022-08-14T02:56:30.257Z,85.60
2022-08-14T02:59:05.529Z,85.90
2022-08-14T03:01:50.210Z,85.80
2022-08-14T03:04:20.595Z,86.00
2022-08-14T03:07:06.726Z,86.20
2022-08-14T03:10:24.489Z,86.20
2022-08-14T03:12:32.261Z,86.20
2022-08-14T03:15:14.259Z,86.40
2022-08-14T03:17:57.047Z,86.50
2022-08-14T03:20:30.687Z,86.70
2022-08-14T03:23:03.349Z,86.90
2022-08-14T03:25:37.690Z,86.90
2022-08-14T03:28:07.385Z,87.10
2022-08-14T03:30:40.979Z,87.10
2022-08-14T03:33:11.282Z,87.80
2022-08-14T03:36:07.713Z,87.30
2022-08-14T03:39:13.038Z,87.50
2022-08-14T03:41:24.714Z,87.60
2022-08-14T03:44:01.071Z,87.60
2022-08-14T03:46:54.705Z,87.70
2022-08-14T03:49:28.456Z,87.70
2022-08-14T03:52:01.151Z,87.80
2022-08-14T03:54:30.228Z,88.10
2022-08-14T03:57:02.713Z,88.00
2022-08-14T03:59:35.268Z,88.10
2022-08-14T04:02:04.777Z,88.20
2022-08-14T04:04:54.896Z,88.50
2022-08-14T04:07:22.804Z,88.50
2022-08-14T04:09:50.782Z,89.10
2022-08-14T04:12:26.368Z,88.40
2022-08-14T04:14:54.644Z,88.50
2022-08-14T04:17:24.471Z,88.50
2022-08-14T04:19:57.691Z,88.70
2022-08-14T04:22:26.005Z,88.90
2022-08-14T04:24:53.968Z,88.90
2022-08-14T04:27:23.727Z,88.90
2022-08-14T04:29:52.092Z,89.00
2022-08-14T04:33:00.161Z,89.20
2022-08-14T04:35:11.949Z,89.30
2022-08-14T04:38:07.813Z,89.40
2022-08-14T04:41:15.602Z,89.40
2022-08-14T04:43:43.687Z,89.50
2022-08-14T04:46:55.709Z,89.70
2022-08-14T04:49:08.306Z,89.80
2022-08-14T04:51:46.940Z,89.80
2022-08-14T04:54:27.642Z,89.90
2022-08-14T04:56:56.686Z,89.80
2022-08-14T04:59:25.844Z,90.00
2022-08-14T05:01:57.141Z,89.90
2022-08-14T05:04:25.972Z,89.90
2022-08-14T05:06:57.780Z,90.40
2022-08-14T05:09:29.017Z,89.90
2022-08-14T05:13:01.015Z,90.20
2022-08-14T05:14:55.151Z,89.60
2022-08-14T05:17:32.041Z,89.40
2022-08-14T05:21:04.953Z,89.30
2022-08-14T05:23:05.037Z,89.10
2022-08-14T05:25:34.168Z,89.10
2022-08-14T05:28:14.090Z,88.90
2022-08-14T05:31:06.679Z,88.40
2022-08-14T05:33:36.973Z,88.30
2022-08-14T05:36:16.688Z,88.10
2022-08-14T05:38:47.890Z,88.10
2022-08-14T05:41:18.424Z,87.90
2022-08-14T05:43:48.311Z,87.70
2022-08-14T05:46:19.547Z,87.60
2022-08-14T05:48:51.955Z,87.30
2022-08-14T05:51:21.269Z,86.90
2022-08-14T05:54:01.809Z,86.90
2022-08-14T05:56:41.315Z,86.00
2022-08-14T05:59:11.401Z,85.50
2022-08-14T06:01:39.462Z,85.30
2022-08-14T06:04:10.818Z,85.10
2022-08-14T06:06:40.514Z,85.10
2022-08-14T06:09:10.869Z,85.20
2022-08-14T06:11:38.799Z,84.70
2022-08-14T06:14:21.079Z,84.40
2022-08-14T06:16:53.381Z,84.30
2022-08-14T06:19:23.254Z,84.60
2022-08-14T06:21:59.239Z,84.40
2022-08-14T06:24:30.552Z,84.10
2022-08-14T06:27:06.382Z,84.30
2022-08-14T06:29:40.944Z,84.10
2022-08-14T06:32:36.913Z,84.00
2022-08-14T06:35:10.768Z,84.30
2022-08-14T06:37:45.514Z,84.90
2022-08-14T06:40:27.965Z,84.60
2022-08-14T06:43:03.089Z,84.20
2022-08-14T06:45:33.513Z,84.40
2022-08-14T06:48:13.646Z,84.40
2022-08-14T06:50:47.118Z,84.40
2022-08-14T06:53:17.947Z,83.90
2022-08-14T06:55:58.043Z,83.90
2022-08-14T06:58:29.452Z,83.90
2022-08-14T07:01:24.841Z,84.00
2022-08-14T07:04:22.775Z,84.20
2022-08-14T07:06:54.646Z,83.60
2022-08-14T07:09:27.931Z,83.00
2022-08-14T07:11:56.519Z,83.60
2022-08-14T07:14:28.143Z,83.50
2022-08-14T07:16:56.215Z,83.80
2022-08-14T07:19:24.545Z,83.70
2022-08-14T07:21:52.914Z,82.80
2022-08-14T07:24:21.970Z,83.00
2022-08-14T07:26:56.818Z,83.20
2022-08-14T07:29:28.720Z,83.40
2022-08-14T07:31:57.226Z,83.70
2022-08-14T07:34:40.665Z,83.60
2022-08-14T07:37:09.831Z,82.90
2022-08-14T07:39:43.457Z,82.90
2022-08-14T07:42:12.245Z,82.70
2022-08-14T07:44:48.996Z,83.40
2022-08-14T07:47:19.247Z,82.20
2022-08-14T07:50:05.028Z,83.10
2022-08-14T07:52:35.231Z,82.80
2022-08-14T07:55:08.588Z,82.80
2022-08-14T07:57:38.670Z,82.10
2022-08-14T08:00:30.848Z,82.30
2022-08-14T08:03:03.290Z,81.40
2022-08-14T08:05:34.114Z,80.70
2022-08-14T08:08:03.402Z,80.80
2022-08-14T08:10:57.331Z,80.80
2022-08-14T08:13:31.422Z,80.60
2022-08-14T08:16:04.175Z,80.70
2022-08-14T08:18:34.009Z,80.30
2022-08-14T08:21:04.597Z,80.60
2022-08-14T08:23:40.645Z,80.70
2022-08-14T08:26:19.390Z,80.70
2022-08-14T08:28:59.652Z,81.00
2022-08-14T08:31:32.750Z,81.00
2022-08-14T08:34:06.741Z,81.30
2022-08-14T08:36:46.613Z,81.20
2022-08-14T08:39:22.172Z,81.00
2022-08-14T08:41:53.455Z,81.00
2022-08-14T08:44:33.089Z,80.50
2022-08-14T08:47:08.334Z,80.50
2022-08-14T08:49:52.685Z,80.50
2022-08-14T08:52:32.154Z,80.30
2022-08-14T08:55:04.536Z,80.70
2022-08-14T08:57:38.085Z,80.60
2022-08-14T09:00:25.887Z,79.70
2022-08-14T09:02:57.980Z,80.40
2022-08-14T09:05:27.179Z,80.20
2022-08-14T09:07:56.663Z,80.60
2022-08-14T09:10:27.255Z,80.60
2022-08-14T09:12:57.746Z,80.70
2022-08-14T09:15:25.976Z,81.10
2022-08-14T09:18:05.269Z,81.40
2022-08-14T09:20:33.574Z,81.00
2022-08-14T09:23:05.986Z,81.30
2022-08-14T09:26:00.384Z,81.30
2022-08-14T09:28:27.573Z,81.30
2022-08-14T09:30:57.825Z,80.90
2022-08-14T09:33:34.741Z,81.30
2022-08-14T09:36:43.838Z,81.10
2022-08-14T09:39:26.949Z,80.80
2022-08-14T09:42:33.233Z,80.70
2022-08-14T09:45:16.619Z,81.10
2022-08-14T09:47:55.084Z,81.00
2022-08-14T09:50:26.951Z,80.80
2022-08-14T09:52:59.162Z,80.70
2022-08-14T09:55:41.528Z,80.80
2022-08-14T09:58:19.265Z,80.70
2022-08-14T10:00:54.261Z,80.70
2022-08-14T10:03:34.232Z,80.50
2022-08-14T10:06:14.381Z,80.50
2022-08-14T10:09:02.949Z,80.50
2022-08-14T10:11:38.182Z,80.00
2022-08-14T10:14:29.345Z,80.10
2022-08-14T10:17:07.052Z,80.10
2022-08-14T10:19:48.802Z,79.90
2022-08-14T10:23:12.613Z,80.20
2022-08-14T10:25:16.264Z,80.20
2022-08-14T10:27:56.994Z,80.30
2022-08-14T10:30:37.011Z,79.80
2022-08-14T10:33:09.919Z,79.20
2022-08-14T10:35:47.862Z,78.30
2022-08-14T10:38:28.012Z,78.00
2022-08-14T10:40:59.498Z,78.40
2022-08-14T10:43:31.601Z,78.10
2022-08-14T10:46:21.390Z,78.10
2022-08-14T10:49:04.460Z,78.10
2022-08-14T10:51:41.634Z,77.80
2022-08-14T10:54:26.155Z,77.50
2022-08-14T10:57:18.878Z,77.50
2022-08-14T11:00:20.630Z,76.90
2022-08-14T11:03:19.827Z,76.10
2022-08-14T11:05:56.219Z,76.80
2022-08-14T11:08:32.987Z,76.20
2022-08-14T11:11:05.765Z,74.90
2022-08-14T11:13:34.882Z,74.80
2022-08-14T11:16:05.857Z,74.90
2022-08-14T11:18:40.477Z,74.00
2022-08-14T11:21:10.591Z,73.90
2022-08-14T11:23:43.690Z,74.10
2022-08-14T11:26:19.602Z,73.90
2022-08-14T11:28:50.361Z,73.40
2022-08-14T11:31:24.389Z,73.30
2022-08-14T11:33:58.614Z,73.50
2022-08-14T11:37:02.467Z,73.80
2022-08-14T11:39:35.222Z,73.60
2022-08-14T11:42:58.216Z,73.50
2022-08-14T11:45:10.956Z,73.70
2022-08-14T11:47:44.122Z,73.50
2022-08-14T11:50:37.055Z,73.30
2022-08-14T11:53:08.149Z,73.50
2022-08-14T11:55:41.348Z,73.50
2022-08-14T11:58:23.690Z,72.50
2022-08-14T12:01:00.177Z,72.60
2022-08-14T12:03:51.408Z,72.70
2022-08-14T12:06:28.682Z,72.80
2022-08-14T12:09:08.575Z,73.00
2022-08-14T12:11:47.052Z,73.40
2022-08-14T12:14:30.733Z,73.10
2022-08-14T12:17:12.294Z,73.30
2022-08-14T12:19:51.581Z,73.30
2022-08-14T12:22:45.396Z,73.20
2022-08-14T12:25:24.702Z,73.30
2022-08-14T12:27:59.089Z,73.20
2022-08-14T12:30:38.046Z,73.40
2022-08-14T12:33:31.220Z,73.10
2022-08-14T12:36:08.362Z,72.90
2022-08-14T12:38:45.084Z,71.20
2022-08-14T12:41:21.727Z,71.30
2022-08-14T12:43:55.588Z,71.80
2022-08-14T12:46:27.411Z,71.10
2022-08-14T12:49:04.715Z,71.00
2022-08-14T12:51:33.844Z,70.40
2022-08-14T12:54:27.416Z,70.50
2022-08-14T12:57:20.604Z,70.20
2022-08-14T12:59:50.639Z,69.90
2022-08-14T13:02:25.252Z,69.70
2022-08-14T13:04:56.847Z,69.00
2022-08-14T13:07:32.562Z,69.10
2022-08-14T13:10:12.901Z,68.40
2022-08-14T13:13:15.747Z,68.60
2022-08-14T13:15:46.388Z,67.80
2022-08-14T13:18:17.305Z,67.00
2022-08-14T13:20:48.155Z,67.10
2022-08-14T13:23:31.943Z,66.20
2022-08-14T13:26:01.550Z,66.40
2022-08-14T13:28:41.192Z,65.90
2022-08-14T13:31:30.157Z,64.60
2022-08-14T13:34:00.480Z,63.70
2022-08-14T13:36:51.991Z,63.50
2022-08-14T13:39:21.459Z,62.90
2022-08-14T13:41:55.952Z,63.50
2022-08-14T13:44:28.004Z,63.10
2022-08-14T13:46:56.355Z,62.20
2022-08-14T13:49:24.944Z,62.10
2022-08-14T13:51:59.301Z,62.80
2022-08-14T13:54:31.606Z,61.60
2022-08-14T13:57:03.987Z,61.70
2022-08-14T13:59:37.259Z,61.00
2022-08-14T14:02:08.509Z,60.90
2022-08-14T14:04:46.350Z,61.30
2022-08-14T14:07:23.586Z,60.40
2022-08-14T14:09:56.516Z,59.50
2022-08-14T14:12:38.550Z,60.20
2022-08-14T14:15:12.605Z,60.40
2022-08-14T14:17:44.458Z,60.40
2022-08-14T14:20:35.854Z,60.50
2022-08-14T14:23:12.154Z,59.50
2022-08-14T14:25:49.207Z,59.70
2022-08-14T14:28:32.146Z,59.50
2022-08-14T14:31:06.150Z,58.50
2022-08-14T14:33:52.367Z,57.40
2022-08-14T14:36:27.997Z,55.50
2022-08-14T14:39:01.670Z,53.30
2022-08-14T14:41:37.961Z,53.70
2022-08-14T14:44:09.585Z,51.80
2022-08-14T14:46:53.120Z,52.70
2022-08-14T14:49:51.261Z,52.80
2022-08-14T14:52:37.073Z,52.80
2022-08-14T14:55:17.054Z,52.20
2022-08-14T14:57:57.503Z,51.30
2022-08-14T15:06:47.843Z,52.60
2022-08-14T15:09:36.595Z,52.60
2022-08-14T15:12:55.574Z,51.90
2022-08-14T15:15:18.638Z,52.60
2022-08-14T15:17:50.462Z,53.40
2022-08-14T15:20:48.398Z,53.40
2022-08-14T15:23:43.677Z,53.80
2022-08-14T15:26:23.945Z,54.20
2022-08-14T15:29:09.343Z,53.40
2022-08-14T15:31:38.750Z,50.90
2022-08-14T15:34:44.380Z,50.50
2022-08-14T15:37:24.456Z,50.30
2022-08-14T15:40:22.336Z,49.20
2022-08-14T15:43:46.745Z,49.10
2022-08-14T15:46:43.129Z,48.80
2022-08-14T15:49:36.657Z,49.50
2022-08-14T15:52:35.425Z,49.60
2022-08-14T15:55:32.802Z,49.80
2022-08-14T15:58:14.269Z,50.20
2022-08-14T16:01:19.360Z,50.10
2022-08-14T16:04:27.749Z,50.00
2022-08-14T16:07:09.957Z,50.10
2022-08-14T16:10:11.887Z,50.40
2022-08-14T16:12:47.419Z,50.90
2022-08-14T16:15:33.070Z,51.30
2022-08-14T16:18:20.502Z,51.60
2022-08-14T16:21:00.641Z,51.90
2022-08-14T16:23:35.926Z,52.40
2022-08-14T16:26:19.414Z,52.90
2022-08-14T16:32:32.798Z,54.30
2022-08-14T16:34:59.100Z,55.20
2022-08-14T16:37:45.632Z,55.80
2022-08-14T16:40:38.995Z,56.60
2022-08-14T16:43:21.021Z,57.10
2022-08-14T16:45:56.329Z,57.40
2022-08-14T16:48:55.555Z,57.80
2022-08-14T16:51:20.779Z,58.30
2022-08-14T16:53:53.870Z,58.40
2022-08-14T16:56:39.653Z,58.80
2022-08-14T16:59:17.068Z,59.00
2022-08-14T17:02:05.095Z,59.30
2022-08-14T17:05:16.308Z,59.80
2022-08-14T17:08:33.028Z,60.00
2022-08-14T17:11:23.016Z,60.30
2022-08-14T17:14:01.335Z,60.40
2022-08-14T17:20:30.996Z,60.90
2022-08-14T17:23:11.155Z,61.00
2022-08-14T17:25:51.322Z,61.40
2022-08-14T17:28:51.535Z,62.00
2022-08-14T17:34:57.757Z,62.40
2022-08-14T17:37:46.011Z,62.60
2022-08-14T17:41:07.405Z,63.20
2022-08-14T17:43:43.113Z,63.40
2022-08-14T17:46:55.225Z,63.90
2022-08-14T17:49:35.586Z,64.50
2022-08-14T17:52:33.960Z,64.80
2022-08-14T17:56:02.784Z,65.50
2022-08-14T17:58:42.041Z,65.60
2022-08-14T18:01:14.085Z,65.90
2022-08-14T18:03:53.721Z,66.50
2022-08-14T18:07:06.118Z,66.90
2022-08-14T18:10:52.118Z,67.60
2022-08-14T18:13:49.866Z,67.60
2022-08-14T18:16:26.392Z,68.20
2022-08-14T18:19:14.212Z,69.20
2022-08-14T18:21:57.519Z,69.20
2022-08-14T18:25:02.648Z,69.50
2022-08-14T18:27:51.672Z,70.20
2022-08-14T18:30:40.379Z,70.80
2022-08-14T18:33:34.170Z,71.10
2022-08-14T18:36:47.516Z,71.60
2022-08-14T18:40:01.459Z,71.10
2022-08-14T18:43:08.651Z,72.00
2022-08-14T18:46:06.079Z,72.10
2022-08-14T18:49:26.591Z,72.90
2022-08-14T18:52:18.706Z,73.30
2022-08-14T18:55:08.301Z,73.50
2022-08-14T18:58:01.019Z,73.40
2022-08-14T19:00:55.360Z,74.00
2022-08-14T19:03:46.279Z,73.70
2022-08-14T19:06:16.737Z,75.30
2022-08-14T19:08:51.999Z,74.30
2022-08-14T19:15:05.871Z,74.70
2022-08-14T19:18:14.839Z,75.60
2022-08-14T19:21:03.431Z,75.40
2022-08-14T19:24:27.448Z,76.20
2022-08-14T19:30:20.325Z,76.60
2022-08-14T19:35:59.878Z,76.50
2022-08-14T19:38:54.873Z,76.40
2022-08-14T19:41:35.467Z,77.30
2022-08-14T19:47:41.532Z,77.10
2022-08-14T19:50:38.028Z,77.70
2022-08-14T19:53:18.758Z,77.70
2022-08-14T19:56:11.187Z,77.60
2022-08-14T19:59:09.971Z,77.80
2022-08-14T20:01:51.392Z,77.60
2022-08-14T20:04:47.494Z,77.80
2022-08-14T20:07:59.779Z,78.10
2022-08-14T20:11:06.554Z,78.10
2022-08-14T20:14:29.730Z,78.20
2022-08-14T20:17:27.645Z,78.20
2022-08-14T20:20:33.418Z,78.00
2022-08-14T20:23:22.947Z,78.10
2022-08-14T20:26:10.572Z,78.50
2022-08-14T20:28:51.355Z,78.30
2022-08-14T20:31:37.193Z,78.30
2022-08-14T20:34:24.907Z,78.30
2022-08-14T20:37:22.454Z,78.50
2022-08-14T20:40:24.515Z,78.40
2022-08-14T20:43:17.034Z,78.90
2022-08-14T20:45:57.892Z,78.50
2022-08-14T20:49:10.699Z,78.50
2022-08-14T20:55:09.837Z,78.60
2022-08-14T20:57:48.565Z,78.40
2022-08-14T21:00:52.122Z,78.50
2022-08-14T21:04:05.170Z,78.70
2022-08-14T21:07:25.469Z,78.80
2022-08-14T21:10:05.248Z,78.50
2022-08-14T21:14:08.944Z,78.50
2022-08-14T21:15:59.917Z,78.40
2022-08-14T21:18:47.588Z,78.30
2022-08-14T21:21:40.531Z,78.30
2022-08-14T21:25:02.833Z,78.30
2022-08-14T21:27:42.057Z,78.50
2022-08-14T21:30:58.029Z,78.40
2022-08-14T21:33:37.978Z,78.60
2022-08-14T21:36:30.934Z,78.50
2022-08-14T21:39:34.844Z,78.70
2022-08-14T21:42:14.411Z,78.50
2022-08-14T21:45:15.532Z,78.60
2022-08-14T21:48:10.681Z,78.50
2022-08-14T21:51:00.282Z,78.50
2022-08-14T21:54:04.205Z,78.70
2022-08-14T21:56:41.416Z,78.80
2022-08-14T22:02:38.722Z,79.10
2022-08-14T22:05:23.657Z,79.00
2022-08-14T22:07:59.648Z,79.30
2022-08-14T22:10:59.218Z,79.30
2022-08-14T22:13:46.692Z,79.40
2022-08-14T22:17:00.111Z,79.50
2022-08-14T22:19:43.307Z,79.70
2022-08-14T22:22:45.570Z,79.60
2022-08-14T22:25:33.245Z,79.80
2022-08-14T22:28:33.053Z,79.90
2022-08-14T22:31:18.366Z,80.30
2022-08-14T22:34:06.605Z,80.70
2022-08-14T22:36:51.231Z,80.40
2022-08-14T22:40:17.105Z,80.30
2022-08-14T22:45:07.388Z,80.60
2022-08-14T22:47:46.723Z,80.60
2022-08-14T22:50:31.016Z,80.90
2022-08-14T22:53:11.208Z,81.10
2022-08-14T22:55:55.590Z,81.40
2022-08-14T22:58:35.382Z,81.40
2022-08-14T23:01:22.681Z,81.50
2022-08-14T23:04:04.519Z,81.80
2022-08-14T23:07:03.027Z,82.00
2022-08-14T23:09:55.924Z,82.00
2022-08-14T23:12:34.989Z,82.30
2022-08-14T23:15:19.775Z,82.40
2022-08-14T23:17:54.673Z,82.40
2022-08-14T23:20:29.455Z,82.40
2022-08-14T23:23:22.646Z,82.70
2022-08-14T23:26:47.670Z,83.00
2022-08-14T23:29:24.625Z,82.90
2022-08-14T23:32:15.483Z,83.00
2022-08-14T23:35:11.535Z,83.10
2022-08-14T23:41:23.821Z,83.50
2022-08-14T23:44:13.654Z,83.60
2022-08-14T23:46:52.738Z,83.90
2022-08-14T23:49:55.378Z,83.90
2022-08-14T23:53:07.454Z,84.00
2022-08-14T23:55:42.060Z,84.70
2022-08-14T23:58:31.514Z,84.40
